Thompsonville, Connecticut
Current Conditions -  °F | °C
As of 3:51 AM on Friday 24 Oct 2014 (Local Time) from KBDL Reporting Station
Light Rain Light Rain  
Wind Chill: 50°   Ceiling: 4600
Heat Index: 50°   Visibility: 10mi
Dew Point: 44°   Wind: 8mph
Humidity: 80%   Direction: 330°NNW
Pressure: 29.72"   Gusts: NA
Location:  41.9843°N, 72.5534°W
Report Text: KBDL 240751Z 33007KT 10SM -RA SCT037 OVC046 10/07 A2972 RMK AO2 RAB0652E03B50 SLP063 P0000 T01000067
Loading
Personal Weather Stations






























Interactive Weather Map
Tropical Storm Tracking
New forecast layout! Learn more

10-Day Weather Forecast

Advertisements
Track Severe Weather on mobile